sensor_id;sensor_type;location;lat;lon;timestamp;temperature;humidity
26613;DHT22;14248;57.652;11.908;2022-12-26T00:02:14;6.40;99.90
26613;DHT22;14248;57.652;11.908;2022-12-26T00:04:40;6.40;99.90
26613;DHT22;14248;57.652;11.908;2022-12-26T00:07:06;6.40;99.90
26613;DHT22;14248;57.652;11.908;2022-12-26T00:09:32;6.40;99.90
26613;DHT22;14248;57.652;11.908;2022-12-26T00:11:58;6.40;99.90
26613;DHT22;14248;57.652;11.908;2022-12-26T00:14:24;6.40;99.90
26613;DHT22;14248;57.652;11.908;2022-12-26T00:16:50;6.40;99.90
26613;DHT22;14248;57.652;11.908;2022-12-26T00:19:15;6.40;99.90
26613;DHT22;14248;57.652;11.908;2022-12-26T00:21:41;6.40;99.90
26613;DHT22;14248;57.652;11.908;2022-12-26T00:24:09;6.40;99.90
26613;DHT22;14248;57.652;11.908;2022-12-26T00:26:35;6.40;99.90
26613;DHT22;14248;57.652;11.908;2022-12-26T00:29:01;6.40;99.90
26613;DHT22;14248;57.652;11.908;2022-12-26T00:31:29;6.40;99.90
26613;DHT22;14248;57.652;11.908;2022-12-26T00:33:56;6.40;99.90
26613;DHT22;14248;57.652;11.908;2022-12-26T00:36:24;6.40;99.90
26613;DHT22;14248;57.652;11.908;2022-12-26T00:38:50;6.40;99.90
26613;DHT22;14248;57.652;11.908;2022-12-26T00:41:17;6.40;99.90
26613;DHT22;14248;57.652;11.908;2022-12-26T00:43:43;6.50;99.90
26613;DHT22;14248;57.652;11.908;2022-12-26T00:46:08;6.50;99.90
26613;DHT22;14248;57.652;11.908;2022-12-26T00:48:34;6.50;99.90
26613;DHT22;14248;57.652;11.908;2022-12-26T00:51:00;6.50;99.90
26613;DHT22;14248;57.652;11.908;2022-12-26T00:53:27;6.50;99.90
26613;DHT22;14248;57.652;11.908;2022-12-26T00:55:53;6.50;99.90
26613;DHT22;14248;57.652;11.908;2022-12-26T00:58:19;6.50;99.90
26613;DHT22;14248;57.652;11.908;2022-12-26T01:00:45;6.50;99.90
26613;DHT22;14248;57.652;11.908;2022-12-26T01:03:11;6.50;99.90
26613;DHT22;14248;57.652;11.908;2022-12-26T01:05:44;6.50;99.90
26613;DHT22;14248;57.652;11.908;2022-12-26T01:08:10;6.50;99.90
26613;DHT22;14248;57.652;11.908;2022-12-26T01:10:39;6.50;99.90
26613;DHT22;14248;57.652;11.908;2022-12-26T01:13:05;6.50;99.90
26613;DHT22;14248;57.652;11.908;2022-12-26T01:15:31;6.50;99.90
26613;DHT22;14248;57.652;11.908;2022-12-26T01:17:58;6.50;99.90
26613;DHT22;14248;57.652;11.908;2022-12-26T01:20:25;6.50;99.90
26613;DHT22;14248;57.652;11.908;2022-12-26T01:22:50;6.50;99.90
26613;DHT22;14248;57.652;11.908;2022-12-26T01:25:16;6.60;99.90
26613;DHT22;14248;57.652;11.908;2022-12-26T01:27:42;6.60;99.90
26613;DHT22;14248;57.652;11.908;2022-12-26T01:30:08;6.60;99.90
26613;DHT22;14248;57.652;11.908;2022-12-26T01:32:34;6.60;99.90
26613;DHT22;14248;57.652;11.908;2022-12-26T01:34:59;6.60;99.90
26613;DHT22;14248;57.652;11.908;2022-12-26T01:37:25;6.60;99.90
26613;DHT22;14248;57.652;11.908;2022-12-26T01:39:51;6.60;99.90
26613;DHT22;14248;57.652;11.908;2022-12-26T01:42:19;6.60;99.90
26613;DHT22;14248;57.652;11.908;2022-12-26T01:45:01;6.60;99.90
26613;DHT22;14248;57.652;11.908;2022-12-26T01:47:42;6.60;99.90
26613;DHT22;14248;57.652;11.908;2022-12-26T01:50:27;6.60;99.90
26613;DHT22;14248;57.652;11.908;2022-12-26T01:52:55;6.60;99.90
26613;DHT22;14248;57.652;11.908;2022-12-26T01:55:22;6.60;99.90
26613;DHT22;14248;57.652;11.908;2022-12-26T01:58:02;6.60;99.90
26613;DHT22;14248;57.652;11.908;2022-12-26T02:00:30;6.60;99.90
26613;DHT22;14248;57.652;11.908;2022-12-26T02:02:56;6.60;99.90
26613;DHT22;14248;57.652;11.908;2022-12-26T02:05:41;6.60;99.90
26613;DHT22;14248;57.652;11.908;2022-12-26T02:08:13;6.60;99.90
26613;DHT22;14248;57.652;11.908;2022-12-26T02:10:54;6.70;99.90
26613;DHT22;14248;57.652;11.908;2022-12-26T11:05:00;6.60;99.90
26613;DHT22;14248;57.652;11.908;2022-12-26T11:07:30;6.90;99.90
26613;DHT22;14248;57.652;11.908;2022-12-26T11:09:57;6.90;99.90
26613;DHT22;14248;57.652;11.908;2022-12-26T11:12:46;6.90;99.90
26613;DHT22;14248;57.652;11.908;2022-12-26T11:21:28;6.80;99.90
26613;DHT22;14248;57.652;11.908;2022-12-26T11:24:18;6.80;99.90
26613;DHT22;14248;57.652;11.908;2022-12-26T11:26:47;6.80;99.90
26613;DHT22;14248;57.652;11.908;2022-12-26T11:29:16;6.80;99.90
26613;DHT22;14248;57.652;11.908;2022-12-26T11:31:54;6.70;99.90
26613;DHT22;14248;57.652;11.908;2022-12-26T11:34:45;6.70;99.90
26613;DHT22;14248;57.652;11.908;2022-12-26T11:37:41;6.70;99.90
26613;DHT22;14248;57.652;11.908;2022-12-26T11:40:22;6.70;99.90
26613;DHT22;14248;57.652;11.908;2022-12-26T11:42:57;6.70;99.90
26613;DHT22;14248;57.652;11.908;2022-12-26T11:45:26;6.70;99.90
26613;DHT22;14248;57.652;11.908;2022-12-26T11:47:56;6.70;99.90
26613;DHT22;14248;57.652;11.908;2022-12-26T11:50:26;6.70;99.90
26613;DHT22;14248;57.652;11.908;2022-12-26T11:53:05;6.70;99.90
26613;DHT22;14248;57.652;11.908;2022-12-26T11:56:07;6.70;99.90
26613;DHT22;14248;57.652;11.908;2022-12-26T11:58:34;6.70;99.90
26613;DHT22;14248;57.652;11.908;2022-12-26T12:01:09;6.70;99.90
26613;DHT22;14248;57.652;11.908;2022-12-26T12:03:45;6.70;99.90
26613;DHT22;14248;57.652;11.908;2022-12-26T12:34:06;7.00;99.90
26613;DHT22;14248;57.652;11.908;2022-12-26T12:39:22;7.00;99.90
26613;DHT22;14248;57.652;11.908;2022-12-26T12:45:25;7.00;99.90
26613;DHT22;14248;57.652;11.908;2022-12-26T12:57:09;7.00;99.90
26613;DHT22;14248;57.652;11.908;2022-12-26T13:02:16;7.00;99.90
26613;DHT22;14248;57.652;11.908;2022-12-26T13:04:48;7.00;99.90
26613;DHT22;14248;57.652;11.908;2022-12-26T13:07:24;6.90;99.90
26613;DHT22;14248;57.652;11.908;2022-12-26T13:09:55;6.90;99.90
26613;DHT22;14248;57.652;11.908;2022-12-26T13:12:25;6.90;99.90
26613;DHT22;14248;57.652;11.908;2022-12-26T13:17:52;6.90;99.90
26613;DHT22;14248;57.652;11.908;2022-12-26T13:20:51;6.90;99.90
26613;DHT22;14248;57.652;11.908;2022-12-26T13:23:24;6.90;99.90
26613;DHT22;14248;57.652;11.908;2022-12-26T13:26:36;6.90;99.90
26613;DHT22;14248;57.652;11.908;2022-12-26T13:29:42;6.90;99.90
26613;DHT22;14248;57.652;11.908;2022-12-26T13:32:29;6.80;99.90
26613;DHT22;14248;57.652;11.908;2022-12-26T13:34:58;6.80;99.90
26613;DHT22;14248;57.652;11.908;2022-12-26T13:40:14;6.80;99.90
26613;DHT22;14248;57.652;11.908;2022-12-26T13:42:44;6.80;99.90
26613;DHT22;14248;57.652;11.908;2022-12-26T13:50:57;6.80;99.90
26613;DHT22;14248;57.652;11.908;2022-12-26T13:55:56;6.80;99.90
26613;DHT22;14248;57.652;11.908;2022-12-26T14:06:46;6.70;99.90
26613;DHT22;14248;57.652;11.908;2022-12-26T14:12:21;6.70;99.90
26613;DHT22;14248;57.652;11.908;2022-12-26T14:23:44;6.70;99.90
26613;DHT22;14248;57.652;11.908;2022-12-26T14:29:12;6.70;99.90
26613;DHT22;14248;57.652;11.908;2022-12-26T16:47:45;6.70;99.90
26613;DHT22;14248;57.652;11.908;2022-12-26T17:07:59;7.00;99.90
26613;DHT22;14248;57.652;11.908;2022-12-26T17:10:35;5.60;99.90
26613;DHT22;14248;57.652;11.908;2022-12-26T17:13:06;5.40;99.90
26613;DHT22;14248;57.652;11.908;2022-12-26T17:26:19;5.50;99.90
26613;DHT22;14248;57.652;11.908;2022-12-26T17:28:45;5.30;99.90
26613;DHT22;14248;57.652;11.908;2022-12-26T17:33:55;5.10;99.90
26613;DHT22;14248;57.652;11.908;2022-12-26T17:36:22;5.10;99.90
26613;DHT22;14248;57.652;11.908;2022-12-26T17:38:50;5.10;99.90
26613;DHT22;14248;57.652;11.908;2022-12-26T17:41:17;5.10;99.90
26613;DHT22;14248;57.652;11.908;2022-12-26T17:43:44;5.10;99.90
26613;DHT22;14248;57.652;11.908;2022-12-26T17:46:16;5.10;99.90
26613;DHT22;14248;57.652;11.908;2022-12-26T17:48:43;5.10;99.90
26613;DHT22;14248;57.652;11.908;2022-12-26T17:51:15;5.10;99.90
26613;DHT22;14248;57.652;11.908;2022-12-26T17:53:43;5.00;99.90
26613;DHT22;14248;57.652;11.908;2022-12-26T17:56:19;5.00;99.90
26613;DHT22;14248;57.652;11.908;2022-12-26T17:58:48;5.00;99.90
26613;DHT22;14248;57.652;11.908;2022-12-26T18:01:14;5.00;99.90
26613;DHT22;14248;57.652;11.908;2022-12-26T18:03:41;4.90;99.90
26613;DHT22;14248;57.652;11.908;2022-12-26T18:06:09;4.80;99.90
26613;DHT22;14248;57.652;11.908;2022-12-26T18:08:37;4.80;99.90
26613;DHT22;14248;57.652;11.908;2022-12-26T18:11:09;4.70;99.90
26613;DHT22;14248;57.652;11.908;2022-12-26T18:13:35;4.70;99.90
26613;DHT22;14248;57.652;11.908;2022-12-26T18:16:02;4.70;99.90
26613;DHT22;14248;57.652;11.908;2022-12-26T18:18:35;4.70;99.90
26613;DHT22;14248;57.652;11.908;2022-12-26T18:21:03;4.70;99.90
26613;DHT22;14248;57.652;11.908;2022-12-26T18:23:30;4.70;99.90
26613;DHT22;14248;57.652;11.908;2022-12-26T18:25:59;4.70;99.90
26613;DHT22;14248;57.652;11.908;2022-12-26T18:28:26;4.70;99.90
26613;DHT22;14248;57.652;11.908;2022-12-26T18:30:52;4.70;99.90
26613;DHT22;14248;57.652;11.908;2022-12-26T18:33:17;4.70;99.90
26613;DHT22;14248;57.652;11.908;2022-12-26T18:35:44;4.70;99.90
26613;DHT22;14248;57.652;11.908;2022-12-26T18:38:15;4.70;99.90
26613;DHT22;14248;57.652;11.908;2022-12-26T18:40:44;4.70;99.90
26613;DHT22;14248;57.652;11.908;2022-12-26T18:43:12;4.60;99.90
26613;DHT22;14248;57.652;11.908;2022-12-26T18:45:38;4.60;99.90
26613;DHT22;14248;57.652;11.908;2022-12-26T18:48:06;4.60;99.90
26613;DHT22;14248;57.652;11.908;2022-12-26T18:50:33;4.60;99.90
26613;DHT22;14248;57.652;11.908;2022-12-26T18:53:00;4.50;99.90
26613;DHT22;14248;57.652;11.908;2022-12-26T18:55:26;4.60;99.90
26613;DHT22;14248;57.652;11.908;2022-12-26T18:57:54;4.50;99.90
26613;DHT22;14248;57.652;11.908;2022-12-26T19:00:21;4.60;99.90
26613;DHT22;14248;57.652;11.908;2022-12-26T19:02:47;4.50;99.90
26613;DHT22;14248;57.652;11.908;2022-12-26T19:05:26;4.60;99.90
26613;DHT22;14248;57.652;11.908;2022-12-26T19:07:53;4.50;99.90
26613;DHT22;14248;57.652;11.908;2022-12-26T19:10:24;4.60;99.90
26613;DHT22;14248;57.652;11.908;2022-12-26T19:12:50;4.60;99.90
26613;DHT22;14248;57.652;11.908;2022-12-26T19:15:16;4.60;99.90
26613;DHT22;14248;57.652;11.908;2022-12-26T19:17:42;4.60;99.90
26613;DHT22;14248;57.652;11.908;2022-12-26T19:20:21;4.60;99.90
26613;DHT22;14248;57.652;11.908;2022-12-26T19:22:48;4.60;99.90
26613;DHT22;14248;57.652;11.908;2022-12-26T19:25:17;4.60;99.90
26613;DHT22;14248;57.652;11.908;2022-12-26T19:27:43;4.60;99.90
26613;DHT22;14248;57.652;11.908;2022-12-26T19:30:10;4.60;99.90
26613;DHT22;14248;57.652;11.908;2022-12-26T19:32:35;4.60;99.90
26613;DHT22;14248;57.652;11.908;2022-12-26T19:35:01;4.60;99.90
26613;DHT22;14248;57.652;11.908;2022-12-26T19:37:27;4.60;99.90
26613;DHT22;14248;57.652;11.908;2022-12-26T19:39:53;4.60;99.90
26613;DHT22;14248;57.652;11.908;2022-12-26T19:42:19;4.60;99.90
26613;DHT22;14248;57.652;11.908;2022-12-26T19:44:45;4.60;99.90
26613;DHT22;14248;57.652;11.908;2022-12-26T19:47:12;4.60;99.90
26613;DHT22;14248;57.652;11.908;2022-12-26T19:49:39;4.60;99.90
26613;DHT22;14248;57.652;11.908;2022-12-26T19:52:05;4.50;99.90
26613;DHT22;14248;57.652;11.908;2022-12-26T19:54:31;4.50;99.90
26613;DHT22;14248;57.652;11.908;2022-12-26T19:56:57;4.50;99.90
26613;DHT22;14248;57.652;11.908;2022-12-26T19:59:23;4.50;99.90
26613;DHT22;14248;57.652;11.908;2022-12-26T20:01:48;4.50;99.90
26613;DHT22;14248;57.652;11.908;2022-12-26T20:04:14;4.60;99.90
26613;DHT22;14248;57.652;11.908;2022-12-26T20:06:40;4.60;99.90
26613;DHT22;14248;57.652;11.908;2022-12-26T20:09:09;4.60;99.90
26613;DHT22;14248;57.652;11.908;2022-12-26T20:11:38;4.60;99.90
26613;DHT22;14248;57.652;11.908;2022-12-26T20:14:05;4.60;99.90
26613;DHT22;14248;57.652;11.908;2022-12-26T20:16:33;4.70;99.90
26613;DHT22;14248;57.652;11.908;2022-12-26T20:18:59;4.70;99.90
26613;DHT22;14248;57.652;11.908;2022-12-26T20:21:25;4.70;99.90
26613;DHT22;14248;57.652;11.908;2022-12-26T20:53:24;4.80;99.90
26613;DHT22;14248;57.652;11.908;2022-12-26T20:55:51;5.30;99.90
26613;DHT22;14248;57.652;11.908;2022-12-26T20:58:18;5.30;99.90
26613;DHT22;14248;57.652;11.908;2022-12-26T21:00:45;5.30;99.90
26613;DHT22;14248;57.652;11.908;2022-12-26T21:03:11;5.30;99.90
26613;DHT22;14248;57.652;11.908;2022-12-26T21:05:37;5.20;99.90
26613;DHT22;14248;57.652;11.908;2022-12-26T21:08:03;5.20;99.90
26613;DHT22;14248;57.652;11.908;2022-12-26T21:10:29;5.20;99.90
26613;DHT22;14248;57.652;11.908;2022-12-26T21:12:55;5.10;99.90
26613;DHT22;14248;57.652;11.908;2022-12-26T21:15:21;5.10;99.90
26613;DHT22;14248;57.652;11.908;2022-12-26T21:17:47;5.00;99.90
26613;DHT22;14248;57.652;11.908;2022-12-26T21:20:13;5.00;99.90
26613;DHT22;14248;57.652;11.908;2022-12-26T21:22:39;4.90;99.90
26613;DHT22;14248;57.652;11.908;2022-12-26T21:25:06;4.80;99.90
26613;DHT22;14248;57.652;11.908;2022-12-26T21:27:33;4.80;99.90
26613;DHT22;14248;57.652;11.908;2022-12-26T21:29:59;4.70;99.90
26613;DHT22;14248;57.652;11.908;2022-12-26T21:32:25;4.70;99.90
26613;DHT22;14248;57.652;11.908;2022-12-26T21:34:50;4.70;99.90
26613;DHT22;14248;57.652;11.908;2022-12-26T21:37:16;4.70;99.90
26613;DHT22;14248;57.652;11.908;2022-12-26T21:47:18;4.70;99.90
26613;DHT22;14248;57.652;11.908;2022-12-26T21:49:45;4.60;99.90
26613;DHT22;14248;57.652;11.908;2022-12-26T21:52:11;4.80;99.90
26613;DHT22;14248;57.652;11.908;2022-12-26T21:54:37;4.90;99.90
26613;DHT22;14248;57.652;11.908;2022-12-26T21:57:22;4.90;99.90
26613;DHT22;14248;57.652;11.908;2022-12-26T21:59:50;4.90;99.90
26613;DHT22;14248;57.652;11.908;2022-12-26T22:02:23;4.80;99.90
26613;DHT22;14248;57.652;11.908;2022-12-26T22:05:08;4.70;99.90
26613;DHT22;14248;57.652;11.908;2022-12-26T22:07:33;4.70;99.90
26613;DHT22;14248;57.652;11.908;2022-12-26T22:10:00;4.60;99.90
26613;DHT22;14248;57.652;11.908;2022-12-26T22:12:26;4.50;99.90
26613;DHT22;14248;57.652;11.908;2022-12-26T22:22:47;4.50;99.90
26613;DHT22;14248;57.652;11.908;2022-12-26T22:37:25;4.30;99.90
26613;DHT22;14248;57.652;11.908;2022-12-26T22:39:50;4.20;99.90
26613;DHT22;14248;57.652;11.908;2022-12-26T23:59:18;4.10;99.90
